Terminal Aerodrome Forecast
Issued by NWS Albany, NY

Home | Current Version | Previous Version | Text Only | Print | Product List | Glossary On
Versions: 1 2 3 4 5 6 7 8 9 10 11 12 13 14 15 16 17
000
FTUS41 KALY 281720
TAFPOU
TAF
KPOU 281720Z 2818/2918 00000KT P6SM OVC250
     FM290000 00000KT P6SM VCSH BKN050 OVC200
     FM290300 00000KT 4SM -RA BR OVC050
     FM290700 00000KT 1SM RA BR OVC015
     FM291400 03005KT P6SM VCSH BKN030 OVC060
     FM291700 01007KT P6SM VCSH BKN060 BKN080=

USA.gov is the U.S. government's official web portal to all federal, state and local government web resources and services.